Bodan 5 — DINQ2 — position and weather

sailwx.info

Track history (hours):
 
Tides and Currents Weather Stations Pressure Air Temp Water Temp Dewpoint Dewpoint Depression Visibility Wind Speed Wind Dir Waves Ship Positions

Bodan 5

Last reported at 2017-Oct-28 13:40 UTC. Time now 2017-Nov-24 20:58 UTC.
Position N 32°38' W 016°54'.
Warning: this ship's position is 27 days out of date.

Length 14 m; draft 2.4 m.

Type: Sailing vessel. MMSI: 211249120.

Date/timePositionNaut miles runAvg speedWind from/ knotsBaromVisibWave heightAir tempDewpointWater temp
2017-Oct-28 13:40N 32°38' W 016°54'2 3.5
2017-Oct-28 13:11N 32°38' W 016°52'4 5.6
2017-Oct-28 12:31N 32°38' W 016°48'0 6.4
2017-Oct-28 12:27N 32°38' W 016°47'3 6.6
2017-Oct-28 11:57N 32°39' W 016°43'12 6.5
2017-Oct-28 10:03N 32°43' W 016°30'1 5.9
2017-Oct-28 09:56N 32°44' W 016°29'3 5.9
2017-Oct-28 09:30N 32°45' W 016°26'3 5.9
2017-Oct-28 08:58N 32°46' W 016°23'3 5.7
2017-Oct-28 08:30N 32°47' W 016°20'3 5.8
2017-Oct-28 07:57N 32°48' W 016°16'3 5.7
2017-Oct-28 07:30N 32°49' W 016°13'3 5.7
2017-Oct-28 07:00N 32°50' W 016°10'3 5.6
2017-Oct-28 06:24N 32°51' W 016°06'8 5.7
2017-Oct-28 05:00N 32°54' W 015°58'3 5.8
2017-Oct-28 04:28N 32°55' W 015°54'3 6.0
2017-Oct-28 04:00N 32°55' W 015°51'3 6.1
2017-Oct-28 03:29N 32°56' W 015°47'6 3.4
2017-Oct-28 01:39N 33°02' W 015°44'5 3.5
2017-Oct-28 00:08N 33°07' W 015°42'1 4.5
2017-Oct-27 23:49N 33°08' W 015°41'2 5.1
2017-Oct-27 23:25N 33°10' W 015°39'2 5.0
2017-Oct-27 22:57N 33°11' W 015°37'31 5.2
2017-Oct-27 16:59N 33°35' W 015°14'2 4.6
2017-Oct-27 16:29N 33°37' W 015°12'108 4.7
2017-Oct-26 17:26N 34°39' W 013°25'3 6.0
2017-Oct-26 17:00N 34°40' W 013°23'3 5.8
2017-Oct-26 16:30N 34°42' W 013°20'3 5.7
2017-Oct-26 16:00N 34°44' W 013°17'3 5.4
2017-Oct-26 15:30N 34°46' W 013°15'7 5.3
2017-Oct-26 14:17N 34°50' W 013°09'1 5.1
2017-Oct-26 14:00N 34°51' W 013°07'2 4.9
2017-Oct-26 13:30N 34°52' W 013°05'2 4.9
2017-Oct-26 13:00N 34°53' W 013°02'3 4.9
2017-Oct-26 12:29N 34°55' W 012°60'2 5.0
2017-Oct-26 12:00N 34°56' W 012°57'3 5.2
2017-Oct-26 11:30N 34°57' W 012°55'3 5.4
2017-Oct-26 11:00N 34°59' W 012°52'3 5.5
2017-Oct-26 10:30N 35°01' W 012°49'3 5.6
2017-Oct-26 10:00N 35°02' W 012°47'3 5.9
2017-Oct-26 09:30N 35°04' W 012°44'3 5.9
2017-Oct-26 09:00N 35°06' W 012°41'3 6.0
2017-Oct-26 08:30N 35°07' W 012°38'3 5.8
2017-Oct-26 08:00N 35°08' W 012°34'2 4.1
2017-Oct-26 07:30N 35°09' W 012°32'3 5.6
2017-Oct-26 07:00N 35°11' W 012°29'26 6.1
2017-Oct-26 02:44N 35°24' W 012°02'1 6.1
2017-Oct-26 02:30N 35°25' W 012°00'119 5.7
2017-Oct-25 05:30N 36°26' W 009°54'53 5.0
2017-Oct-24 18:57N 36°54' W 008°59'3 6.5
2017-Oct-24 18:30N 36°56' W 008°55'3 6.5
2017-Oct-24 18:00N 36°57' W 008°52'3 6.7
2017-Oct-24 17:30N 36°59' W 008°49'3 6.1
2017-Oct-24 17:00N 37°01' W 008°45'3 6.6
2017-Oct-24 16:30N 37°03' W 008°42'3 5.1
2017-Oct-24 16:00N 37°04' W 008°40'2 4.2
2017-Oct-24 15:30N 37°06' W 008°40'0 0.0
2017-Oct-24 15:00N 37°06' W 008°40'0 0.0
2017-Oct-23 17:05N 37°06' W 008°40'0 0.0
2017-Oct-23 16:59N 37°06' W 008°40'0 0.0
2017-Oct-23 16:29N 37°06' W 008°40'0 0.0
2017-Oct-23 16:00N 37°06' W 008°40'1 2.2
2017-Oct-23 15:30N 37°06' W 008°39'2 3.7
2017-Oct-23 15:00N 37°06' W 008°37'2 4.4
2017-Oct-23 14:30N 37°05' W 008°34'3 5.3
2017-Oct-23 14:00N 37°05' W 008°31'2 4.0
2017-Oct-23 13:30N 37°04' W 008°28'2 5.0
2017-Oct-23 13:00N 37°04' W 008°25'3 5.2
2017-Oct-23 12:30N 37°04' W 008°22'3 5.6
2017-Oct-23 12:00N 37°04' W 008°19'3 5.0
2017-Oct-23 11:30N 37°04' W 008°15'3 5.1
2017-Oct-23 11:00N 37°04' W 008°12'2 3.3
2017-Oct-23 10:30N 37°04' W 008°10'1 2.6
2017-Oct-23 10:00N 37°04' W 008°09'1 0.1
2017-Oct-22 16:47N 37°05' W 008°07'1 3.2
2017-Oct-22 16:30N 37°04' W 008°08'1 2.0
2017-Oct-22 16:00N 37°04' W 008°09'2 4.4
2017-Oct-22 15:30N 37°04' W 008°12'1 2.6
2017-Oct-22 15:01N 37°03' W 008°10'3 5.2
2017-Oct-22 14:30N 37°02' W 008°07'1 2.3
2017-Oct-22 14:00N 37°03' W 008°08'  
2017-Oct-18 17:16N 37°03' W 008°06'2 6.2
2017-Oct-18 16:59N 37°02' W 008°04'3 6.8
2017-Oct-18 16:30N 36°60' W 008°01'  
Track history (hours):
 
Tides and Currents Weather Stations Pressure Air Temp Water Temp Dewpoint Dewpoint Depression Visibility Wind Speed Wind Dir Waves Ship Positions

Bodan 5

Last reported at 2017-Oct-28 13:40 UTC. Time now 2017-Nov-24 20:58 UTC.
Position N 32°38' W 016°54'.
Warning: this ship's position is 27 days out of date.

Length 14 m; draft 2.4 m.

Type: Sailing vessel. MMSI: 211249120.

Date/timePositionNaut miles runAvg speedWind from/ knotsBaromVisibWave heightAir tempDewpointWater temp
2017-Oct-28 13:40N 32°38' W 016°54'2 3.5
2017-Oct-28 13:11N 32°38' W 016°52'4 5.6
2017-Oct-28 12:31N 32°38' W 016°48'0 6.4
2017-Oct-28 12:27N 32°38' W 016°47'3 6.6
2017-Oct-28 11:57N 32°39' W 016°43'12 6.5
2017-Oct-28 10:03N 32°43' W 016°30'1 5.9
2017-Oct-28 09:56N 32°44' W 016°29'3 5.9
2017-Oct-28 09:30N 32°45' W 016°26'3 5.9
2017-Oct-28 08:58N 32°46' W 016°23'3 5.7
2017-Oct-28 08:30N 32°47' W 016°20'3 5.8
2017-Oct-28 07:57N 32°48' W 016°16'3 5.7
2017-Oct-28 07:30N 32°49' W 016°13'3 5.7
2017-Oct-28 07:00N 32°50' W 016°10'3 5.6
2017-Oct-28 06:24N 32°51' W 016°06'8 5.7
2017-Oct-28 05:00N 32°54' W 015°58'3 5.8
2017-Oct-28 04:28N 32°55' W 015°54'3 6.0
2017-Oct-28 04:00N 32°55' W 015°51'3 6.1
2017-Oct-28 03:29N 32°56' W 015°47'6 3.4
2017-Oct-28 01:39N 33°02' W 015°44'5 3.5
2017-Oct-28 00:08N 33°07' W 015°42'1 4.5
2017-Oct-27 23:49N 33°08' W 015°41'2 5.1
2017-Oct-27 23:25N 33°10' W 015°39'2 5.0
2017-Oct-27 22:57N 33°11' W 015°37'31 5.2
2017-Oct-27 16:59N 33°35' W 015°14'2 4.6
2017-Oct-27 16:29N 33°37' W 015°12'108 4.7
2017-Oct-26 17:26N 34°39' W 013°25'3 6.0
2017-Oct-26 17:00N 34°40' W 013°23'3 5.8
2017-Oct-26 16:30N 34°42' W 013°20'3 5.7
2017-Oct-26 16:00N 34°44' W 013°17'3 5.4
2017-Oct-26 15:30N 34°46' W 013°15'7 5.3
2017-Oct-26 14:17N 34°50' W 013°09'1 5.1
2017-Oct-26 14:00N 34°51' W 013°07'2 4.9
2017-Oct-26 13:30N 34°52' W 013°05'2 4.9
2017-Oct-26 13:00N 34°53' W 013°02'3 4.9
2017-Oct-26 12:29N 34°55' W 012°60'2 5.0
2017-Oct-26 12:00N 34°56' W 012°57'3 5.2
2017-Oct-26 11:30N 34°57' W 012°55'3 5.4
2017-Oct-26 11:00N 34°59' W 012°52'3 5.5
2017-Oct-26 10:30N 35°01' W 012°49'3 5.6
2017-Oct-26 10:00N 35°02' W 012°47'3 5.9
2017-Oct-26 09:30N 35°04' W 012°44'3 5.9
2017-Oct-26 09:00N 35°06' W 012°41'3 6.0
2017-Oct-26 08:30N 35°07' W 012°38'3 5.8
2017-Oct-26 08:00N 35°08' W 012°34'2 4.1
2017-Oct-26 07:30N 35°09' W 012°32'3 5.6
2017-Oct-26 07:00N 35°11' W 012°29'26 6.1
2017-Oct-26 02:44N 35°24' W 012°02'1 6.1
2017-Oct-26 02:30N 35°25' W 012°00'119 5.7
2017-Oct-25 05:30N 36°26' W 009°54'53 5.0
2017-Oct-24 18:57N 36°54' W 008°59'3 6.5
2017-Oct-24 18:30N 36°56' W 008°55'3 6.5
2017-Oct-24 18:00N 36°57' W 008°52'3 6.7
2017-Oct-24 17:30N 36°59' W 008°49'3 6.1
2017-Oct-24 17:00N 37°01' W 008°45'3 6.6
2017-Oct-24 16:30N 37°03' W 008°42'3 5.1
2017-Oct-24 16:00N 37°04' W 008°40'2 4.2
2017-Oct-24 15:30N 37°06' W 008°40'0 0.0
2017-Oct-24 15:00N 37°06' W 008°40'0 0.0
2017-Oct-23 17:05N 37°06' W 008°40'0 0.0
2017-Oct-23 16:59N 37°06' W 008°40'0 0.0
2017-Oct-23 16:29N 37°06' W 008°40'0 0.0
2017-Oct-23 16:00N 37°06' W 008°40'1 2.2
2017-Oct-23 15:30N 37°06' W 008°39'2 3.7
2017-Oct-23 15:00N 37°06' W 008°37'2 4.4
2017-Oct-23 14:30N 37°05' W 008°34'3 5.3
2017-Oct-23 14:00N 37°05' W 008°31'2 4.0
2017-Oct-23 13:30N 37°04' W 008°28'2 5.0
2017-Oct-23 13:00N 37°04' W 008°25'3 5.2
2017-Oct-23 12:30N 37°04' W 008°22'3 5.6
2017-Oct-23 12:00N 37°04' W 008°19'3 5.0
2017-Oct-23 11:30N 37°04' W 008°15'3 5.1
2017-Oct-23 11:00N 37°04' W 008°12'2 3.3
2017-Oct-23 10:30N 37°04' W 008°10'1 2.6
2017-Oct-23 10:00N 37°04' W 008°09'1 0.1
2017-Oct-22 16:47N 37°05' W 008°07'1 3.2
2017-Oct-22 16:30N 37°04' W 008°08'1 2.0
2017-Oct-22 16:00N 37°04' W 008°09'2 4.4
2017-Oct-22 15:30N 37°04' W 008°12'1 2.6
2017-Oct-22 15:01N 37°03' W 008°10'3 5.2
2017-Oct-22 14:30N 37°02' W 008°07'1 2.3
2017-Oct-22 14:00N 37°03' W 008°08'  
2017-Oct-18 17:16N 37°03' W 008°06'2 6.2
2017-Oct-18 16:59N 37°02' W 008°04'3 6.8
2017-Oct-18 16:30N 36°60' W 008°01'  

Dump ship's entire track history